Time;durP1;ratioP1;P1;durP2;ratioP2;P2;SDS_P1;SDS_P2;PMS_P1;PMS_P2;Temp;Humidity;BMP_temperature;BMP_pressure;BME280_temperature;BME280_humidity;BME280_pressure;Samples;Min_cycle;Max_cycle;Signal;HPM_P1;HPM_P2
2022/08/17 00:00:28;;;;;;;6.68;4.03;;;;;;;23.42;63.07;94372.38;5106442;28;20197;-83
2022/08/17 00:02:57;;;;;;;6.00;3.83;;;;;;;23.32;63.15;94367.69;5106256;28;20200;-83
2022/08/17 00:05:24;;;;;;;4.40;4.00;;;;;;;23.48;62.97;94392.34;5105748;28;20228;-83
2022/08/17 00:07:51;;;;;;;9.60;3.75;;;;;;;23.42;63.02;94391.41;5106261;28;20189;-82
2022/08/17 00:10:20;;;;;;;3.72;3.40;;;;;;;23.32;62.89;94372.13;5105799;28;20189;-80
2022/08/17 00:12:46;;;;;;;11.13;3.95;;;;;;;23.44;63.01;94399.00;5105916;28;20200;-81
2022/08/17 00:15:14;;;;;;;6.85;4.13;;;;;;;23.37;62.99;94388.69;5101577;28;20194;-81
2022/08/17 00:17:42;;;;;;;5.22;3.75;;;;;;;23.40;62.91;94393.47;5092277;28;20204;-82
2022/08/17 00:20:10;;;;;;;7.03;3.65;;;;;;;23.36;62.92;94388.91;5092122;28;20197;-82
2022/08/17 00:22:37;;;;;;;7.88;3.78;;;;;;;23.34;62.60;94393.56;5093282;28;20240;-82
2022/08/17 00:25:08;;;;;;;3.90;3.45;;;;;;;23.34;62.83;94391.75;5092594;28;20249;-82
2022/08/17 00:27:36;;;;;;;4.57;3.50;;;;;;;23.33;62.61;94389.38;5092384;28;20186;-83
2022/08/17 00:30:07;;;;;;;4.43;4.00;;;;;;;23.19;62.55;94373.13;5092225;28;20275;-84
2022/08/17 00:32:37;;;;;;;4.30;3.83;;;;;;;23.29;62.57;94387.19;5091759;28;20189;-82
2022/08/17 00:35:05;;;;;;;5.85;4.00;;;;;;;23.27;62.60;94389.25;5091872;28;20194;-83
2022/08/17 00:37:32;;;;;;;4.38;3.58;;;;;;;23.24;62.61;94387.06;5092104;28;20665;-81
2022/08/17 00:39:59;;;;;;;5.68;3.55;;;;;;;23.09;62.40;94373.63;5092235;28;20189;-82
2022/08/17 00:42:26;;;;;;;4.50;3.55;;;;;;;23.21;62.63;94391.94;5091562;28;20193;-82
2022/08/17 00:44:54;;;;;;;4.72;3.35;;;;;;;23.13;62.31;94382.63;5091627;28;20558;-84
2022/08/17 00:47:21;;;;;;;6.55;3.70;;;;;;;23.11;62.31;94376.84;5091377;28;20193;-81
2022/08/17 00:49:48;;;;;;;5.63;3.92;;;;;;;23.10;62.67;94379.66;5091704;28;20193;-82
2022/08/17 00:52:20;;;;;;;4.78;4.15;;;;;;;23.04;62.65;94370.91;5091297;28;20200;-82
2022/08/17 00:54:50;;;;;;;5.07;3.42;;;;;;;23.07;62.49;94386.13;5092057;28;20416;-82
2022/08/17 00:57:21;;;;;;;6.60;4.22;;;;;;;23.00;62.82;94374.97;5091486;28;20614;-82
2022/08/17 00:59:50;;;;;;;3.88;3.58;;;;;;;23.01;63.18;94373.97;5091626;28;20190;-82
2022/08/17 01:02:19;;;;;;;5.65;3.75;;;;;;;22.97;63.21;94376.25;5090986;28;20629;-83
2022/08/17 01:04:49;;;;;;;5.63;3.90;;;;;;;22.95;63.66;94378.25;5091282;28;20263;-82
2022/08/17 01:07:17;;;;;;;4.20;3.80;;;;;;;22.89;63.73;94378.34;5091116;28;20606;-80
2022/08/17 01:09:44;;;;;;;7.30;4.20;;;;;;;22.86;64.12;94384.78;5091422;28;20185;-83
2022/08/17 01:12:12;;;;;;;5.63;4.05;;;;;;;22.74;64.67;94381.31;5091082;28;20192;-81
2022/08/17 01:14:39;;;;;;;7.60;3.72;;;;;;;22.76;65.08;94379.31;5091236;28;20193;-84
2022/08/17 01:17:08;;;;;;;5.20;3.92;;;;;;;22.74;64.98;94383.94;5091046;28;20688;-84
2022/08/17 01:19:39;;;;;;;9.68;4.40;;;;;;;22.58;65.32;94366.28;5091024;28;20243;-83
2022/08/17 01:22:16;;;;;;;4.35;3.95;;;;;;;22.66;65.49;94385.03;5090789;28;20193;-80
2022/08/17 01:24:46;;;;;;;4.55;3.60;;;;;;;22.63;65.63;94387.28;5091026;28;20221;-83
2022/08/17 01:27:14;;;;;;;7.13;3.92;;;;;;;22.59;65.90;94391.34;5090100;28;20646;-83
2022/08/17 01:29:44;;;;;;;6.18;4.00;;;;;;;22.55;65.93;94383.16;5090842;28;20192;-84
2022/08/17 01:32:11;;;;;;;4.75;3.35;;;;;;;22.48;66.59;94382.44;5090926;28;20189;-83
2022/08/17 01:34:38;;;;;;;4.60;4.20;;;;;;;22.42;66.80;94368.47;5090980;28;20198;-83
2022/08/17 01:37:06;;;;;;;6.10;4.15;;;;;;;22.44;66.84;94376.88;5090917;28;20186;-84
2022/08/17 01:39:36;;;;;;;4.43;4.03;;;;;;;22.41;66.63;94374.72;5091376;28;20192;-83
2022/08/17 01:42:07;;;;;;;5.00;3.45;;;;;;;22.39;66.25;94370.72;5091447;28;20201;-85
2022/08/17 01:44:34;;;;;;;6.32;4.28;;;;;;;22.38;65.64;94374.34;5090906;28;20684;-84
2022/08/17 01:47:01;;;;;;;4.88;3.67;;;;;;;22.35;65.60;94372.19;5091034;28;20182;-84
2022/08/17 01:49:28;;;;;;;5.15;3.72;;;;;;;22.32;65.80;94372.59;5090664;28;20196;-82
2022/08/17 01:51:55;;;;;;;3.97;3.50;;;;;;;22.29;65.40;94373.84;5093301;28;20197;-79
2022/08/17 01:54:25;;;;;;;5.20;4.03;;;;;;;22.26;65.50;94374.28;5093521;28;20192;-82
2022/08/17 01:56:53;;;;;;;4.40;3.50;;;;;;;22.22;65.56;94378.34;5094567;28;20182;-84
2022/08/17 01:59:20;;;;;;;5.50;4.20;;;;;;;22.20;65.66;94375.16;5094863;28;20612;-84
2022/08/17 02:01:48;;;;;;;3.80;3.47;;;;;;;22.06;65.67;94361.44;5094450;28;20650;-82
2022/08/17 02:04:15;;;;;;;6.10;3.70;;;;;;;22.12;65.78;94381.44;5091326;28;20600;-80
2022/08/17 02:06:43;;;;;;;5.22;3.78;;;;;;;22.13;65.96;94383.03;5090746;28;20276;-82
2022/08/17 02:09:11;;;;;;;10.68;3.55;;;;;;;22.07;65.91;94383.09;5090250;28;20193;-83
2022/08/17 02:11:39;;;;;;;4.13;3.67;;;;;;;21.99;66.63;94390.16;5090567;28;20192;-83
2022/08/17 02:14:10;;;;;;;4.78;4.35;;;;;;;21.73;66.46;94343.56;5090409;28;20552;-83
2022/08/17 02:16:39;;;;;;;6.20;4.35;;;;;;;21.91;67.15;94374.03;5090066;28;20201;-81
2022/08/17 02:19:09;;;;;;;8.75;4.30;;;;;;;21.98;67.27;94395.59;5090258;28;20185;-84
2022/08/17 02:21:37;;;;;;;7.07;3.97;;;;;;;21.87;67.10;94373.66;5090049;28;20300;-81
2022/08/17 02:24:06;;;;;;;4.15;3.75;;;;;;;21.98;67.35;94390.38;5092595;28;20177;-81
2022/08/17 02:26:33;;;;;;;8.10;3.95;;;;;;;21.92;67.86;94397.22;5094518;28;20197;-84
2022/08/17 02:29:00;;;;;;;4.85;3.83;;;;;;;21.72;67.98;94365.41;5095366;28;20189;-82
2022/08/17 02:31:28;;;;;;;8.13;4.10;;;;;;;21.82;68.20;94388.31;5096718;28;20201;-81
2022/08/17 02:33:55;;;;;;;4.95;4.13;;;;;;;21.82;68.35;94388.31;5095241;28;20669;-80
2022/08/17 02:36:22;;;;;;;4.30;3.97;;;;;;;21.79;68.46;94389.53;5091755;28;20193;-82
2022/08/17 02:38:49;;;;;;;5.82;3.97;;;;;;;21.75;68.64;94393.59;5091726;28;20239;-82
2022/08/17 02:41:16;;;;;;;6.82;4.38;;;;;;;21.67;69.01;94386.84;5091124;28;20193;-80
2022/08/17 02:43:44;;;;;;;3.88;3.58;;;;;;;21.63;69.33;94388.28;5090274;28;20186;-85
2022/08/17 02:46:11;;;;;;;7.32;4.10;;;;;;;21.62;69.27;94396.31;5089268;28;20740;-82
2022/08/17 02:48:39;;;;;;;5.15;4.25;;;;;;;21.58;69.37;94397.72;5089688;28;20276;-81
2022/08/17 02:51:06;;;;;;;5.25;3.72;;;;;;;21.57;69.25;94396.94;5089335;28;20185;-80
2022/08/17 02:53:33;;;;;;;5.15;4.20;;;;;;;21.51;69.43;94384.78;5089111;28;20280;-80
2022/08/17 02:56:00;;;;;;;5.28;4.47;;;;;;;21.50;69.50;94396.19;5089315;28;20182;-82
2022/08/17 02:58:27;;;;;;;7.57;4.45;;;;;;;21.51;69.53;94401.19;5089442;28;20655;-82
2022/08/17 03:00:53;;;;;;;4.35;3.95;;;;;;;21.48;69.55;94403.41;5089229;28;20201;-82
2022/08/17 03:03:20;;;;;;;5.95;3.88;;;;;;;21.41;69.88;94389.66;5089435;28;20192;-83
2022/08/17 03:05:51;;;;;;;5.95;4.05;;;;;;;21.39;70.10;94396.88;5089512;28;20221;-79
2022/08/17 03:08:19;;;;;;;4.43;4.03;;;;;;;21.20;70.06;94367.38;5089318;28;20190;-84
2022/08/17 03:10:46;;;;;;;6.10;4.40;;;;;;;21.35;70.21;94401.72;5089676;28;20212;-83
2022/08/17 03:13:14;;;;;;;7.63;4.73;;;;;;;21.30;70.61;94401.53;5089459;28;20185;-81
2022/08/17 03:15:44;;;;;;;7.95;4.53;;;;;;;21.25;71.22;94409.16;5089306;28;20632;-83
2022/08/17 03:18:12;;;;;;;7.78;4.45;;;;;;;21.08;71.40;94389.88;5089133;28;20181;-82
2022/08/17 03:20:39;;;;;;;6.23;4.73;;;;;;;21.19;71.38;94410.00;5089449;28;20190;-82
2022/08/17 03:23:07;;;;;;;7.20;4.18;;;;;;;20.99;71.88;94391.94;5088838;28;20795;-81
2022/08/17 03:25:38;;;;;;;4.35;3.92;;;;;;;21.13;71.92;94403.84;5089143;28;20220;-83
2022/08/17 03:28:06;;;;;;;7.13;4.53;;;;;;;21.12;72.21;94404.84;5088943;28;20186;-83
2022/08/17 03:30:33;;;;;;;5.97;4.47;;;;;;;21.10;72.20;94414.66;5089302;28;20235;-82
2022/08/17 03:33:02;;;;;;;6.60;4.50;;;;;;;21.04;72.49;94405.88;5089023;28;20217;-83
2022/08/17 03:35:32;;;;;;;5.88;4.20;;;;;;;21.01;72.65;94414.09;5089083;28;20189;-81
2022/08/17 03:37:59;;;;;;;9.10;4.82;;;;;;;20.96;72.88;94413.94;5089759;28;20190;-80
2022/08/17 03:40:28;;;;;;;4.38;3.97;;;;;;;20.82;73.11;94399.41;5089134;28;20657;-81
2022/08/17 03:42:56;;;;;;;8.02;4.47;;;;;;;20.93;73.36;94413.53;5088837;28;20196;-82
2022/08/17 03:56:45;;;;;;;7.63;4.78;;;;;;;20.87;74.41;94417.78;5093036;28;20326;-82
2022/08/17 03:59:16;;;;;;;6.47;4.68;;;;;;;20.88;74.42;94423.78;5093318;28;20193;-82
2022/08/17 04:01:44;;;;;;;8.27;4.90;;;;;;;20.88;74.56;94421.16;5093334;28;20216;-81
2022/08/17 04:04:12;;;;;;;8.77;5.00;;;;;;;20.90;74.74;94422.56;5093552;28;20240;-82
2022/08/17 04:06:40;;;;;;;6.35;4.50;;;;;;;20.91;74.55;94431.16;5093294;28;20210;-81
2022/08/17 04:09:08;;;;;;;6.50;4.40;;;;;;;20.91;74.63;94428.56;5093125;28;20177;-82
2022/08/17 04:11:37;;;;;;;8.05;4.60;;;;;;;20.82;73.95;94419.41;5092229;28;20258;-84
2022/08/17 04:14:06;;;;;;;6.90;4.78;;;;;;;20.68;73.77;94396.09;5092716;28;20509;-83
2022/08/17 04:16:33;;;;;;;12.63;5.33;;;;;;;21.02;73.51;94433.09;5092377;28;20186;-82
2022/08/17 04:19:00;;;;;;;6.43;4.75;;;;;;;20.97;73.67;94433.72;5092228;28;20182;-83
2022/08/17 04:21:27;;;;;;;6.72;5.35;;;;;;;20.96;74.13;94433.94;5092230;28;20190;-82
2022/08/17 04:23:54;;;;;;;8.50;5.00;;;;;;;20.91;74.10;94434.56;5092208;28;20661;-81
2022/08/17 04:26:21;;;;;;;6.47;5.18;;;;;;;20.97;74.74;94451.13;5091986;28;20237;-83
2022/08/17 04:28:50;;;;;;;10.00;5.43;;;;;;;20.94;75.01;94449.75;5092202;28;20707;-82
2022/08/17 04:31:17;;;;;;;8.23;5.87;;;;;;;20.99;75.14;94454.31;5091874;28;20197;-85
2022/08/17 04:33:44;;;;;;;11.67;5.80;;;;;;;21.07;74.78;94458.47;5092663;28;20193;-85
2022/08/17 04:36:13;;;;;;;11.50;6.80;;;;;;;21.12;75.13;94449.06;5092153;28;20216;-84
2022/08/17 04:38:43;;;;;;;15.00;6.53;;;;;;;21.17;76.11;94451.81;5092070;28;20205;-81
2022/08/17 04:43:58;;;;;;;8.90;6.72;;;;;;;21.42;75.91;94462.31;5092453;28;20185;-85
2022/08/17 04:46:27;;;;;;;12.70;7.40;;;;;;;21.58;75.96;94468.78;5091419;28;20225;-82
2022/08/17 04:48:56;;;;;;;8.82;7.40;;;;;;;21.51;75.66;94442.03;5091801;28;20193;-82
2022/08/17 04:51:26;;;;;;;14.85;7.75;;;;;;;21.84;75.44;94474.81;5091719;28;20584;-84
2022/08/17 04:53:56;;;;;;;12.35;7.40;;;;;;;21.98;74.84;94469.28;5092733;28;20236;-81
2022/08/17 04:56:25;;;;;;;14.90;7.57;;;;;;;22.10;74.00;94453.75;5092414;28;20182;-83
2022/08/17 04:59:01;;;;;;;13.95;7.57;;;;;;;22.21;73.46;94455.69;5092174;28;20235;-83
2022/08/17 05:01:31;;;;;;;14.80;7.72;;;;;;;22.48;73.07;94474.44;5091648;28;20185;-83
2022/08/17 05:04:02;;;;;;;17.60;7.43;;;;;;;22.66;72.72;94472.84;5091585;28;20225;-83
2022/08/17 05:06:30;;;;;;;10.13;7.72;;;;;;;22.86;71.78;94473.44;5091063;28;20222;-83
2022/08/17 05:08:58;;;;;;;16.77;8.07;;;;;;;22.57;71.33;94429.84;5091480;28;20197;-84
2022/08/17 05:11:26;;;;;;;13.18;7.20;;;;;;;22.78;70.97;94437.22;5091611;28;20209;-82
2022/08/17 05:13:54;;;;;;;12.30;7.07;;;;;;;22.90;70.29;94432.09;5091233;28;20653;-82
2022/08/17 05:16:22;;;;;;;21.10;9.25;;;;;;;23.20;69.97;94468.63;5091092;28;20296;-83
2022/08/17 05:18:51;;;;;;;14.57;7.93;;;;;;;23.41;69.34;94464.75;5091334;28;20208;-84
2022/08/17 05:21:19;;;;;;;14.80;8.25;;;;;;;23.46;69.53;94470.06;5091542;28;20243;-83
2022/08/17 05:23:46;;;;;;;12.82;7.63;;;;;;;23.62;69.29;94476.47;5091047;28;20216;-84
2022/08/17 05:26:15;;;;;;;17.42;8.30;;;;;;;23.81;68.91;94479.84;5091059;28;20217;-83
2022/08/17 05:28:42;;;;;;;13.88;8.25;;;;;;;23.83;68.05;94459.50;5091196;28;20182;-82
2022/08/17 05:31:09;;;;;;;15.93;8.95;;;;;;;23.93;66.79;94451.91;5091436;28;20181;-83
2022/08/17 05:33:39;;;;;;;14.15;7.55;;;;;;;24.06;67.20;94464.75;5090881;28;20197;-82
2022/08/17 05:36:09;;;;;;;16.05;8.40;;;;;;;24.26;66.80;94462.56;5101403;28;20190;-80
2022/08/17 05:38:36;;;;;;;16.38;9.05;;;;;;;24.47;66.34;94482.16;5092793;28;20189;-83
2022/08/17 05:41:06;;;;;;;20.90;8.50;;;;;;;24.60;65.79;94480.31;5090699;28;20196;-83
2022/08/17 05:43:35;;;;;;;14.23;8.18;;;;;;;24.79;65.39;94487.00;5090636;28;20221;-84
2022/08/17 05:46:06;;;;;;;10.50;8.07;;;;;;;24.90;64.49;94480.16;5092641;28;20587;-83
2022/08/17 05:48:37;;;;;;;15.90;8.75;;;;;;;25.02;63.99;94486.16;5090856;28;20185;-83
2022/08/17 05:51:20;;;;;;;14.60;8.10;;;;;;;25.20;62.94;94480.75;5090763;28;20185;-83
2022/08/17 05:53:52;;;;;;;18.33;8.93;;;;;;;25.22;62.75;94483.94;5092117;28;20186;-83
2022/08/17 05:56:28;;;;;;;12.73;8.05;;;;;;;25.35;62.13;94484.69;5090286;28;20221;-83
2022/08/17 05:59:04;;;;;;;11.27;8.48;;;;;;;25.38;62.55;94473.75;5090677;28;20185;-84
2022/08/17 06:01:49;;;;;;;10.93;7.65;;;;;;;25.55;62.38;94481.63;5090116;28;20196;-83
2022/08/17 06:04:28;;;;;;;21.80;8.32;;;;;;;25.59;61.24;94464.41;5090282;28;20355;-82
2022/08/17 06:07:06;;;;;;;15.25;7.68;;;;;;;25.57;61.21;94476.97;5090089;28;20225;-83
2022/08/17 06:09:40;;;;;;;16.90;7.32;;;;;;;25.78;60.83;94484.16;5090331;28;20178;-84
2022/08/17 06:12:23;;;;;;;10.73;6.88;;;;;;;25.61;60.16;94481.50;5090115;28;20186;-84
2022/08/17 06:15:09;;;;;;;12.30;6.80;;;;;;;25.81;60.24;94485.50;5089435;28;20649;-80
2022/08/17 06:17:37;;;;;;;16.20;6.90;;;;;;;25.87;59.32;94484.56;5089997;28;20197;-81
2022/08/17 06:20:10;;;;;;;14.07;7.53;;;;;;;25.74;60.09;94478.56;5089739;28;20193;-83
2022/08/17 06:22:44;;;;;;;9.48;6.43;;;;;;;25.78;59.22;94468.44;5089880;28;20193;-83
2022/08/17 06:25:17;;;;;;;11.02;6.38;;;;;;;26.05;59.25;94486.94;5089818;28;20267;-83
2022/08/17 06:27:48;;;;;;;9.27;5.97;;;;;;;26.00;59.12;94490.28;5089678;28;20206;-82
2022/08/17 06:30:20;;;;;;;12.68;6.55;;;;;;;25.92;58.37;94451.38;5090016;28;20193;-83
2022/08/17 06:32:49;;;;;;;12.48;6.25;;;;;;;26.32;58.33;94492.31;5089916;28;20205;-82
2022/08/17 06:35:24;;;;;;;12.48;6.85;;;;;;;26.43;58.18;94494.06;5089658;28;20590;-83
2022/08/17 06:38:03;;;;;;;12.15;6.60;;;;;;;26.66;57.04;94495.72;5089556;28;20193;-83
2022/08/17 06:40:54;;;;;;;17.17;7.07;;;;;;;26.71;57.53;94494.97;5089715;28;20254;-82
2022/08/17 06:43:41;;;;;;;11.60;5.35;;;;;;;26.88;57.01;94484.44;5089439;28;20189;-80
2022/08/17 06:46:13;;;;;;;10.23;6.50;;;;;;;26.86;55.98;94489.94;5089557;28;20228;-83
2022/08/17 06:48:45;;;;;;;7.60;5.72;;;;;;;26.59;56.51;94481.97;5089178;28;20193;-82
2022/08/17 06:51:18;;;;;;;12.38;6.68;;;;;;;26.47;56.85;94479.47;5089519;28;20616;-82
2022/08/17 06:53:51;;;;;;;10.57;6.32;;;;;;;26.55;56.79;94477.44;5089317;28;20649;-83
2022/08/17 06:56:26;;;;;;;8.23;5.22;;;;;;;26.85;56.50;94485.69;5089524;28;20190;-84
2022/08/17 06:58:57;;;;;;;10.60;5.28;;;;;;;26.92;55.79;94452.19;5089357;28;20182;-83
2022/08/17 07:01:29;;;;;;;11.70;5.80;;;;;;;27.14;56.00;94472.41;5089357;28;20247;-83
2022/08/17 07:04:06;;;;;;;8.02;5.22;;;;;;;27.22;56.17;94456.22;5088920;28;20232;-83
2022/08/17 07:06:36;;;;;;;12.13;4.85;;;;;;;27.32;55.40;94456.31;5089256;28;20212;-84
2022/08/17 07:09:10;;;;;;;8.65;5.50;;;;;;;27.51;54.37;94462.81;5089250;28;20194;-83
2022/08/17 07:11:40;;;;;;;11.68;5.18;;;;;;;27.78;53.96;94482.28;5089601;28;20178;-83
2022/08/17 07:14:21;;;;;;;8.25;5.28;;;;;;;27.60;53.66;94454.50;5089021;28;20200;-82
2022/08/17 07:16:52;;;;;;;8.10;5.32;;;;;;;27.81;53.27;94479.13;5089358;28;20569;-82
2022/08/17 07:19:22;;;;;;;5.80;4.30;;;;;;;28.03;54.00;94476.44;5089522;28;20206;-83
2022/08/17 07:21:56;;;;;;;8.02;4.95;;;;;;;28.16;52.68;94465.47;5088965;28;20242;-82
2022/08/17 07:24:32;;;;;;;11.18;5.15;;;;;;;28.48;52.10;94478.59;5089448;28;20187;-83
2022/08/17 07:27:15;;;;;;;8.05;4.80;;;;;;;28.50;51.65;94472.03;5092557;28;20217;-83
2022/08/17 07:29:48;;;;;;;11.40;4.65;;;;;;;28.56;52.15;94474.69;5093641;28;20186;-81
2022/08/17 07:32:18;;;;;;;9.15;5.60;;;;;;;28.56;51.46;94478.09;5093235;28;20194;-83
2022/08/17 07:35:11;;;;;;;11.88;4.40;;;;;;;28.57;52.28;94481.53;5092922;28;20204;-82
2022/08/17 07:37:40;;;;;;;12.45;5.10;;;;;;;28.49;51.65;94444.13;5093061;28;20193;-83
2022/08/17 07:40:34;;;;;;;9.55;4.60;;;;;;;28.96;51.61;94482.00;5093221;28;20190;-80
2022/08/17 07:43:14;;;;;;;8.38;5.13;;;;;;;29.21;51.29;94465.50;5093161;28;20178;-81
2022/08/17 07:48:38;;;;;;;7.50;5.00;;;;;;;30.00;49.65;94469.56;5092948;28;20192;-82
2022/08/17 07:51:17;;;;;;;8.90;5.03;;;;;;;30.34;48.42;94475.09;5093032;28;20201;-82
2022/08/17 07:53:45;;;;;;;13.15;5.88;;;;;;;30.51;48.23;94472.16;5092418;28;20224;-81
2022/08/17 07:56:32;;;;;;;10.63;5.30;;;;;;;30.63;47.62;94472.66;5093253;28;20186;-82
2022/08/17 07:59:07;;;;;;;8.77;4.80;;;;;;;30.47;46.26;94474.53;5092657;28;20212;-82
2022/08/17 08:01:36;;;;;;;9.13;4.22;;;;;;;30.41;47.42;94464.28;5092858;28;20699;-82
2022/08/17 08:04:21;;;;;;;6.90;4.97;;;;;;;30.50;47.19;94467.94;5092380;28;20711;-83
2022/08/17 08:06:53;;;;;;;15.15;5.55;;;;;;;30.55;46.60;94473.22;5092836;28;20320;-83
2022/08/17 08:09:32;;;;;;;8.10;4.22;;;;;;;30.55;46.81;94467.94;5092653;28;20189;-82
2022/08/17 08:12:20;;;;;;;10.65;4.72;;;;;;;30.68;46.54;94472.66;5093469;28;20225;-81
2022/08/17 08:14:55;;;;;;;8.15;4.47;;;;;;;30.66;45.83;94452.88;5092455;28;20197;-81
2022/08/17 08:17:24;;;;;;;6.97;3.95;;;;;;;30.75;45.12;94461.84;5092290;28;20700;-83
2022/08/17 08:19:52;;;;;;;6.93;4.45;;;;;;;30.90;45.24;94468.91;5092467;28;20236;-83
2022/08/17 08:22:26;;;;;;;6.50;3.92;;;;;;;31.08;45.17;94464.88;5092233;28;20204;-83
2022/08/17 08:25:04;;;;;;;8.70;4.47;;;;;;;31.09;44.32;94461.97;5092427;28;20189;-81
2022/08/17 08:27:43;;;;;;;7.28;4.07;;;;;;;31.21;44.75;94457.13;5092120;28;20698;-83
2022/08/17 08:30:14;;;;;;;8.77;3.80;;;;;;;31.19;43.81;94459.25;5092320;28;20181;-82
2022/08/17 08:33:04;;;;;;;5.88;3.78;;;;;;;31.14;42.57;94445.31;5092257;28;20190;-82
2022/08/17 08:35:36;;;;;;;5.18;3.70;;;;;;;31.15;43.00;94437.09;5091940;28;20255;-83
2022/08/17 08:38:15;;;;;;;6.97;3.65;;;;;;;31.20;42.13;94457.41;5091910;28;20270;-82
2022/08/17 08:41:00;;;;;;;8.95;3.95;;;;;;;31.15;42.98;94452.16;5092026;28;20181;-81
2022/08/17 08:43:39;;;;;;;4.82;3.85;;;;;;;31.02;42.53;94435.03;5092366;28;20190;-84
2022/08/17 08:46:16;;;;;;;8.63;4.40;;;;;;;31.13;42.84;94448.97;5091712;28;20186;-82
2022/08/17 08:49:08;;;;;;;5.85;3.60;;;;;;;30.97;42.97;94448.28;5092116;28;20190;-83
2022/08/17 08:51:46;;;;;;;5.13;3.15;;;;;;;31.03;41.57;94455.13;5092414;28;20190;-83
2022/08/17 08:54:26;;;;;;;3.55;2.67;;;;;;;31.01;40.82;94448.53;5091731;28;20641;-83
2022/08/17 08:56:58;;;;;;;4.32;2.80;;;;;;;31.09;40.00;94448.75;5092044;28;20266;-83
2022/08/17 08:59:34;;;;;;;3.15;2.80;;;;;;;31.27;40.38;94444.69;5091578;28;20235;-82
2022/08/17 09:02:09;;;;;;;4.78;3.38;;;;;;;31.43;39.79;94440.94;5091661;28;20193;-83
2022/08/17 09:04:53;;;;;;;4.07;2.45;;;;;;;31.63;39.90;94439.19;5091371;28;20224;-82
2022/08/17 09:07:33;;;;;;;4.43;3.45;;;;;;;31.77;39.61;94444.66;5091012;28;20232;-83
2022/08/17 09:10:13;;;;;;;3.78;3.30;;;;;;;31.81;39.22;94451.75;5091442;28;20197;-83
2022/08/17 09:12:54;;;;;;;4.55;3.60;;;;;;;31.76;39.67;94441.22;5091407;28;20247;-83
2022/08/17 09:15:27;;;;;;;5.78;3.15;;;;;;;31.83;40.17;94446.19;5091712;28;20284;-82
2022/08/17 09:18:00;;;;;;;6.90;3.20;;;;;;;31.93;39.70;94432.91;5091093;28;20200;-83
2022/08/17 09:20:31;;;;;;;6.60;3.00;;;;;;;32.06;38.62;94444.69;5091747;28;20197;-83
2022/08/17 09:23:02;;;;;;;4.22;2.78;;;;;;;32.10;37.86;94440.44;5091884;28;20193;-81
2022/08/17 09:25:33;;;;;;;7.68;3.28;;;;;;;32.04;38.14;94436.25;5091817;28;20273;-82
2022/08/17 09:28:03;;;;;;;11.48;3.20;;;;;;;32.07;38.91;94446.28;5091718;28;20219;-81
2022/08/17 09:30:41;;;;;;;11.23;3.78;;;;;;;31.98;39.16;94438.16;5095023;28;20285;-82
2022/08/17 09:33:11;;;;;;;5.38;3.45;;;;;;;31.89;38.93;94453.84;5093214;28;20181;-83
2022/08/17 09:35:43;;;;;;;3.88;3.00;;;;;;;31.66;38.95;94442.09;5095878;28;20197;-84
2022/08/17 09:38:21;;;;;;;6.88;3.60;;;;;;;31.55;39.68;94437.94;5091508;28;20216;-84
2022/08/17 09:40:55;;;;;;;3.10;2.63;;;;;;;31.52;40.21;94438.50;5090713;28;20540;-83
2022/08/17 09:43:31;;;;;;;7.13;3.15;;;;;;;31.32;40.03;94409.53;5091299;28;20188;-83
2022/08/17 09:46:04;;;;;;;4.93;3.13;;;;;;;31.50;39.69;94442.47;5090670;28;20193;-83
2022/08/17 09:48:37;;;;;;;5.43;3.17;;;;;;;31.44;39.18;94431.94;5090326;28;20247;-81
2022/08/17 09:51:09;;;;;;;5.97;2.88;;;;;;;31.50;39.22;94434.53;5090603;28;20189;-83
2022/08/17 09:53:38;;;;;;;3.38;3.08;;;;;;;31.48;38.65;94438.25;5091679;28;20196;-83
2022/08/17 09:56:25;;;;;;;8.43;3.85;;;;;;;31.41;39.11;94429.03;5092696;28;20188;-82
2022/08/17 09:59:22;;;;;;;8.00;3.90;;;;;;;31.30;39.31;94422.22;5093865;28;20177;-81
2022/08/17 10:01:59;;;;;;;3.83;3.38;;;;;;;31.39;39.63;94431.16;5093821;28;20615;-82
2022/08/17 10:04:39;;;;;;;3.08;2.75;;;;;;;31.34;38.03;94433.84;5093267;28;20221;-82
2022/08/17 10:07:15;;;;;;;5.75;2.92;;;;;;;31.31;38.31;94437.03;5091006;28;20209;-83
2022/08/17 10:09:57;;;;;;;4.43;3.47;;;;;;;31.35;38.75;94420.38;5090522;28;20199;-80
2022/08/17 10:12:36;;;;;;;5.85;3.15;;;;;;;31.44;39.11;94417.94;5090829;28;20615;-80
2022/08/17 10:15:17;;;;;;;3.30;3.00;;;;;;;31.47;39.28;94399.63;5090605;28;20193;-83
2022/08/17 10:18:09;;;;;;;4.20;3.30;;;;;;;31.62;38.77;94414.63;5090647;28;20736;-81
2022/08/17 10:26:11;;;;;;;3.42;3.13;;;;;;;31.63;38.65;94418.84;5088446;28;20276;-82
2022/08/17 10:26:35;;;;;;;6.63;3.47;;;;;;;31.59;39.19;94417.03;5089966;28;20188;-82
2022/08/17 10:29:17;;;;;;;7.47;3.25;;;;;;;31.63;38.50;94412.75;5090014;28;20197;-83
2022/08/17 10:31:48;;;;;;;3.80;3.35;;;;;;;31.62;38.86;94408.53;5089750;28;20271;-80
2022/08/17 10:34:44;;;;;;;4.93;3.33;;;;;;;31.72;37.90;94406.59;5090007;28;20201;-81
2022/08/17 10:37:39;;;;;;;5.47;3.75;;;;;;;31.78;38.10;94410.00;5089518;28;20186;-81
2022/08/17 10:40:22;;;;;;;7.72;3.53;;;;;;;31.80;37.65;94415.00;5090423;28;20580;-82
2022/08/17 10:42:56;;;;;;;6.82;3.70;;;;;;;31.80;37.51;94413.16;5089468;28;20239;-80
2022/08/17 10:45:29;;;;;;;4.80;3.45;;;;;;;31.78;36.57;94407.34;5089625;28;20192;-81
2022/08/17 10:48:02;;;;;;;8.52;3.42;;;;;;;31.82;36.52;94403.06;5089260;28;20215;-80
2022/08/17 10:50:59;;;;;;;7.22;3.53;;;;;;;31.77;36.57;94402.31;5089743;28;20190;-82
2022/08/17 10:53:55;;;;;;;5.18;2.90;;;;;;;31.82;36.19;94400.41;5090829;28;20193;-83
2022/08/17 10:56:45;;;;;;;8.40;3.53;;;;;;;31.73;36.73;94394.94;5089133;28;20564;-82
2022/08/17 10:59:50;;;;;;;6.95;3.72;;;;;;;31.57;37.60;94375.00;5089293;28;20194;-82
2022/08/17 11:02:27;;;;;;;5.20;3.45;;;;;;;31.58;36.85;94389.00;5089400;28;20511;-82
2022/08/17 11:05:31;;;;;;;5.03;3.13;;;;;;;31.73;35.57;94389.66;5089056;28;20544;-82
2022/08/17 11:08:19;;;;;;;5.97;3.50;;;;;;;31.75;35.74;94384.09;5089056;28;20239;-82
2022/08/17 11:11:09;;;;;;;3.88;3.03;;;;;;;31.68;35.47;94373.03;5089444;28;20255;-82
2022/08/17 11:13:44;;;;;;;6.15;3.45;;;;;;;31.81;35.23;94384.84;5089583;28;20182;-83
2022/08/17 11:16:31;;;;;;;5.22;3.20;;;;;;;31.88;36.12;94385.34;5089769;28;20193;-80
2022/08/17 11:19:35;;;;;;;4.85;3.30;;;;;;;32.01;36.03;94397.91;5089892;28;20268;-81
2022/08/17 11:22:21;;;;;;;4.65;2.90;;;;;;;32.07;35.07;94401.28;5089326;28;20193;-81
2022/08/17 11:24:50;;;;;;;4.15;3.10;;;;;;;32.15;34.00;94404.13;5089309;28;20572;-80
2022/08/17 11:27:26;;;;;;;4.28;3.50;;;;;;;32.17;34.60;94401.22;5089244;28;20308;-82
2022/08/17 11:29:56;;;;;;;5.25;3.22;;;;;;;32.13;34.66;94393.03;5089017;28;20823;-80
2022/08/17 11:32:36;;;;;;;3.42;3.15;;;;;;;32.13;35.27;94386.97;5089197;28;20197;-82
2022/08/17 11:35:11;;;;;;;5.75;3.15;;;;;;;32.18;35.05;94392.97;5089203;28;20235;-80
2022/08/17 11:38:00;;;;;;;6.53;3.88;;;;;;;32.23;35.31;94386.84;5089312;28;20198;-79
2022/08/17 11:40:41;;;;;;;5.00;2.92;;;;;;;32.30;35.92;94392.59;5089014;28;20232;-82
2022/08/17 11:43:50;;;;;;;5.75;3.45;;;;;;;32.34;35.61;94392.81;5089162;28;20276;-80
2022/08/17 11:51:32;;;;;;;3.20;2.90;;;;;;;32.49;36.02;94395.31;5046328;28;20194;-83
2022/08/17 11:52:39;;;;;;;8.48;3.85;;;;;;;32.65;36.54;94398.59;5046638;28;20194;-79
2022/08/17 11:55:08;;;;;;;8.25;4.03;;;;;;;32.51;38.84;94409.06;5046244;28;20195;-82
2022/08/17 11:58:05;;;;;;;8.50;3.90;;;;;;;32.42;40.41;94408.88;5046558;28;20281;-81
2022/08/17 12:00:50;;;;;;;8.18;4.20;;;;;;;32.14;41.69;94409.69;5046503;28;20238;-83
2022/08/17 12:03:43;;;;;;;7.00;4.22;;;;;;;32.02;41.07;94420.66;5045908;28;20197;-83
2022/08/17 12:06:28;;;;;;;11.85;4.45;;;;;;;31.76;40.90;94396.25;4987036;28;20197;-79
2022/08/17 12:08:58;;;;;;;5.13;4.45;;;;;;;31.62;41.57;94421.75;4986940;28;20226;-85
2022/08/17 12:11:33;;;;;;;6.57;3.97;;;;;;;31.45;42.15;94404.44;4987488;28;20200;-82
2022/08/17 12:14:00;;;;;;;8.75;4.00;;;;;;;31.39;42.96;94431.16;4990495;28;20207;-83
2022/08/17 12:16:27;;;;;;;4.72;4.18;;;;;;;31.29;43.22;94434.66;4990177;28;20716;-83
2022/08/17 12:19:00;;;;;;;11.35;4.10;;;;;;;31.20;43.01;94431.00;4990795;28;20189;-83
2022/08/17 12:21:37;;;;;;;4.57;4.13;;;;;;;31.08;43.08;94417.31;4991910;28;20310;-81
2022/08/17 12:24:14;;;;;;;5.65;4.25;;;;;;;30.87;42.37;94432.47;5029880;28;20683;-81